Time,TemperatureF,DewpointF,PressureIn,WindDirection,WindDirectionDegrees,WindSpeedMPH,WindSpeedGustMPH,Humidity,HourlyPrecipIn,Conditions,Clouds,dailyrainin,SoftwareType,DateUTC
2013-12-26 00:01:00,46.2,35.5,30.41,North,0,2.7,4.0,66,0.00,,OVC,0.00,VWS V14.00,2013-12-26 05:01:00,
2013-12-26 00:02:00,46.0,35.3,30.41,NNW,337,3.6,4.0,66,0.00,,OVC,0.00,VWS V14.00,2013-12-26 05:02:00,
2013-12-26 00:03:00,46.0,35.3,30.41,North,0,4.9,5.4,66,0.00,,OVC,0.00,VWS V14.00,2013-12-26 05:03:00,
2013-12-26 00:04:00,46.0,35.3,30.41,North,349,5.8,5.8,66,0.00,,OVC,0.00,VWS V14.00,2013-12-26 05:04:00,
2013-12-26 00:05:00,46.0,35.3,30.41,North,0,3.6,3.6,66,0.00,,OVC,0.00,VWS V14.00,2013-12-26 05:05:00,
2013-12-26 00:11:00,45.9,35.2,30.41,North,357,6.7,6.7,66,0.00,,OVC,0.00,VWS V14.00,2013-12-26 05:11:00,
2013-12-26 00:16:00,45.7,35.0,30.41,NNW,335,4.5,6.3,66,0.00,,OVC,0.00,VWS V14.00,2013-12-26 05:16:00,
2013-12-26 00:21:00,45.5,35.2,30.41,NNE,17,4.9,5.4,67,0.00,,OVC,0.00,VWS V14.00,2013-12-26 05:21:00,
2013-12-26 00:26:00,45.3,35.0,30.41,North,2,5.8,8.1,67,0.00,,OVC,0.00,VWS V14.00,2013-12-26 05:26:00,
2013-12-26 00:31:00,45.1,34.8,30.41,NW,319,3.6,7.6,67,0.00,,OVC,0.00,VWS V14.00,2013-12-26 05:31:00,
2013-12-26 00:37:00,45.0,34.7,30.41,North,357,5.4,5.8,67,0.00,,OVC,0.00,VWS V14.00,2013-12-26 05:37:00,
2013-12-26 00:42:00,44.8,34.9,30.41,NW,312,2.7,2.7,68,0.00,,OVC,0.00,VWS V14.00,2013-12-26 05:42:00,
2013-12-26 00:47:00,44.6,34.7,30.41,NNW,338,5.4,5.4,68,0.00,,OVC,0.00,VWS V14.00,2013-12-26 05:47:00,
2013-12-26 00:52:00,44.2,34.4,30.41,NNW,328,4.9,6.3,68,0.00,,OVC,0.00,VWS V14.00,2013-12-26 05:52:00,
2013-12-26 00:57:00,43.9,34.4,30.41,NNW,332,5.4,6.3,69,0.00,,OVC,0.00,VWS V14.00,2013-12-26 05:57:00,
2013-12-26 01:02:00,43.7,34.2,30.41,NNW,338,3.6,5.4,69,0.00,,OVC,0.00,VWS V14.00,2013-12-26 06:02:00,
2013-12-26 01:07:00,43.3,33.9,30.41,NNW,345,3.6,3.6,69,0.00,,OVC,0.00,VWS V14.00,2013-12-26 06:07:00,
2013-12-26 01:12:00,43.2,34.0,30.41,North,8,3.1,4.0,70,0.00,,OVC,0.00,VWS V14.00,2013-12-26 06:12:00,
2013-12-26 01:17:00,43.0,33.9,30.41,WNW,291,2.2,2.2,70,0.00,,OVC,0.00,VWS V14.00,2013-12-26 06:17:00,
2013-12-26 01:22:00,42.8,33.7,30.41,NNW,337,2.7,2.7,70,0.00,,OVC,0.00,VWS V14.00,2013-12-26 06:22:00,
2013-12-26 01:27:00,42.6,33.5,30.41,NW,321,3.1,3.1,70,0.00,,OVC,0.00,VWS V14.00,2013-12-26 06:27:00,
2013-12-26 01:33:00,42.4,33.4,30.41,NW,322,2.7,2.7,70,0.00,,OVC,0.00,VWS V14.00,2013-12-26 06:33:00,
2013-12-26 01:38:00,41.7,33.0,30.41,NW,320,2.2,3.1,71,0.00,,OVC,0.00,VWS V14.00,2013-12-26 06:38:00,
2013-12-26 01:43:00,41.5,33.5,30.41,North,0,2.7,5.4,73,0.00,,OVC,0.00,VWS V14.00,2013-12-26 06:43:00,
2013-12-26 01:48:00,41.2,33.5,30.41,WNW,285,3.1,4.0,74,0.00,,OVC,0.00,VWS V14.00,2013-12-26 06:48:00,
2013-12-26 01:53:00,41.2,33.5,30.41,NW,308,2.7,2.7,74,0.00,,OVC,0.00,VWS V14.00,2013-12-26 06:53:00,
2013-12-26 01:58:00,41.0,33.7,30.41,WNW,297,2.7,3.6,75,0.00,,OVC,0.00,VWS V14.00,2013-12-26 06:58:00,
2013-12-26 02:03:00,40.8,33.8,30.41,WNW,295,4.0,4.0,76,0.00,,OVC,0.00,VWS V14.00,2013-12-26 07:03:00,
2013-12-26 02:08:00,40.8,33.8,30.41,West,281,4.0,4.0,76,0.00,,OVC,0.00,VWS V14.00,2013-12-26 07:08:00,
2013-12-26 02:13:00,40.6,33.7,30.41,NW,313,2.7,3.6,76,0.00,,OVC,0.00,VWS V14.00,2013-12-26 07:13:00,
2013-12-26 02:18:00,40.6,34.0,30.41,NW,312,3.6,4.9,77,0.00,,OVC,0.00,VWS V14.00,2013-12-26 07:18:00,
2013-12-26 02:23:00,40.6,34.3,30.41,NW,324,4.0,5.8,78,0.00,,OVC,0.00,VWS V14.00,2013-12-26 07:23:00,
2013-12-26 02:28:00,40.6,34.7,30.41,NNW,346,3.1,4.0,79,0.00,,OVC,0.00,VWS V14.00,2013-12-26 07:28:00,
2013-12-26 02:34:00,40.6,35.0,30.41,WNW,302,4.0,4.0,80,0.00,,OVC,0.00,VWS V14.00,2013-12-26 07:34:00,
2013-12-26 02:39:00,40.6,35.0,30.41,NW,314,5.8,6.7,80,0.00,,OVC,0.00,VWS V14.00,2013-12-26 07:39:00,
2013-12-26 02:44:00,40.6,35.0,30.41,NW,312,2.7,4.0,80,0.00,,OVC,0.00,VWS V14.00,2013-12-26 07:44:00,
2013-12-26 02:49:00,40.6,35.0,30.41,NW,321,3.6,4.0,80,0.00,,OVC,0.00,VWS V14.00,2013-12-26 07:49:00,
2013-12-26 02:54:00,40.5,34.8,30.41,NW,324,5.4,5.4,80,0.00,,OVC,0.00,VWS V14.00,2013-12-26 07:54:00,
2013-12-26 02:59:00,40.3,34.6,30.41,NNW,333,5.8,5.8,80,0.00,,OVC,0.00,VWS V14.00,2013-12-26 07:59:00,
2013-12-26 03:04:00,40.1,34.4,30.38,North,353,6.3,6.3,80,0.00,,OVC,0.00,VWS V14.00,2013-12-26 08:04:00,
2013-12-26 03:09:00,39.7,34.4,30.38,North,0,4.0,4.0,81,0.00,,OVC,0.00,VWS V14.00,2013-12-26 08:09:00,
2013-12-26 03:14:00,39.7,34.4,30.38,NW,321,3.1,4.0,81,0.00,,OVC,0.00,VWS V14.00,2013-12-26 08:14:00,
2013-12-26 03:19:00,39.6,34.5,30.38,NW,315,4.9,4.9,82,0.00,,OVC,0.00,VWS V14.00,2013-12-26 08:19:00,
2013-12-26 03:24:00,39.4,34.3,30.38,NW,319,2.7,3.1,82,0.00,,OVC,0.00,VWS V14.00,2013-12-26 08:24:00,
2013-12-26 03:29:00,39.2,34.2,30.38,NNE,12,2.2,2.2,82,0.00,,OVC,0.00,VWS V14.00,2013-12-26 08:29:00,
2013-12-26 03:34:00,39.4,34.3,30.38,NW,307,0.0,0.0,82,0.00,,OVC,0.00,VWS V14.00,2013-12-26 08:34:00,
2013-12-26 03:39:00,39.2,34.2,30.38,NNW,342,0.0,0.0,82,0.00,,OVC,0.00,VWS V14.00,2013-12-26 08:39:00,
2013-12-26 03:44:00,39.2,34.2,30.38,NW,318,0.0,0.0,82,0.00,,OVC,0.00,VWS V14.00,2013-12-26 08:44:00,
2013-12-26 03:49:00,39.0,34.3,30.38,North,0,0.0,0.0,83,0.00,,OVC,0.00,VWS V14.00,2013-12-26 08:49:00,
2013-12-26 03:54:00,38.8,34.1,30.38,WNW,303,0.0,0.0,83,0.00,,OVC,0.00,VWS V14.00,2013-12-26 08:54:00,
2013-12-26 03:59:00,38.7,34.0,30.38,NW,316,0.0,0.0,83,0.00,,OVC,0.00,VWS V14.00,2013-12-26 08:59:00,
2013-12-26 04:04:00,38.5,33.8,30.38,NW,311,0.0,0.0,83,0.00,,OVC,0.00,VWS V14.00,2013-12-26 09:04:00,
2013-12-26 04:09:00,38.5,34.1,30.38,NNW,341,0.0,0.0,84,0.00,,OVC,0.00,VWS V14.00,2013-12-26 09:09:00,
2013-12-26 04:14:00,38.5,34.1,30.38,NW,305,0.0,0.0,84,0.00,,OVC,0.00,VWS V14.00,2013-12-26 09:14:00,
2013-12-26 04:19:00,38.5,34.1,30.41,NW,305,0.0,0.0,84,0.00,,OVC,0.00,VWS V14.00,2013-12-26 09:19:00,
2013-12-26 04:24:00,38.3,33.9,30.41,NW,305,4.0,4.0,84,0.00,,OVC,0.00,VWS V14.00,2013-12-26 09:24:00,
2013-12-26 04:30:00,38.3,33.9,30.41,NW,309,0.0,0.0,84,0.00,,OVC,0.00,VWS V14.00,2013-12-26 09:30:00,
2013-12-26 04:35:00,38.1,33.7,30.41,WNW,290,3.6,4.0,84,0.00,,OVC,0.00,VWS V14.00,2013-12-26 09:35:00,
2013-12-26 04:40:00,37.9,33.8,30.41,WNW,300,5.4,5.4,85,0.00,,OVC,0.00,VWS V14.00,2013-12-26 09:40:00,
2013-12-26 04:45:00,37.8,34.0,30.41,NNW,336,3.6,4.9,86,0.00,,OVC,0.00,VWS V14.00,2013-12-26 09:45:00,
2013-12-26 04:50:00,37.6,33.8,30.38,NW,310,3.6,3.6,86,0.00,,OVC,0.00,VWS V14.00,2013-12-26 09:50:00,
2013-12-26 04:55:00,37.6,34.1,30.38,NW,311,2.7,3.1,87,0.00,,OVC,0.00,VWS V14.00,2013-12-26 09:55:00,
2013-12-26 05:00:00,37.4,33.9,30.38,WNW,303,3.1,3.6,87,0.00,,OVC,0.00,VWS V14.00,2013-12-26 10:00:00,
2013-12-26 05:05:00,37.4,33.9,30.38,NW,325,2.7,3.6,87,0.00,,OVC,0.00,VWS V14.00,2013-12-26 10:05:00,
2013-12-26 05:10:00,37.4,33.9,30.38,West,281,4.0,4.0,87,0.00,,OVC,0.00,VWS V14.00,2013-12-26 10:10:00,
2013-12-26 05:15:00,37.4,33.9,30.38,NW,306,3.6,4.0,87,0.00,,OVC,0.00,VWS V14.00,2013-12-26 10:15:00,
2013-12-26 05:20:00,37.4,33.9,30.38,NW,307,2.7,3.6,87,0.00,,OVC,0.00,VWS V14.00,2013-12-26 10:20:00,
2013-12-26 05:25:00,37.2,33.7,30.38,WNW,291,4.0,4.0,87,0.00,,OVC,0.00,VWS V14.00,2013-12-26 10:25:00,
2013-12-26 05:30:00,37.2,33.7,30.38,WNW,289,3.6,4.0,87,0.00,,OVC,0.00,VWS V14.00,2013-12-26 10:30:00,
2013-12-26 05:35:00,37.0,33.5,30.38,West,279,6.3,6.3,87,0.00,,OVC,0.00,VWS V14.00,2013-12-26 10:35:00,
2013-12-26 05:40:00,37.0,33.5,30.38,WNW,297,4.0,4.5,87,0.00,,OVC,0.00,VWS V14.00,2013-12-26 10:40:00,
2013-12-26 05:45:00,36.9,33.4,30.38,WNW,302,3.6,4.9,87,0.00,,OVC,0.00,VWS V14.00,2013-12-26 10:45:00,
2013-12-26 05:51:00,36.9,33.4,30.38,WNW,294,3.1,3.6,87,0.00,,OVC,0.00,VWS V14.00,2013-12-26 10:51:00,
2013-12-26 05:56:00,36.7,33.5,30.38,NNW,328,0.0,0.0,88,0.00,,OVC,0.00,VWS V14.00,2013-12-26 10:56:00,
2013-12-26 06:01:00,36.5,33.3,30.38,NW,312,3.1,4.0,88,0.00,,OVC,0.00,VWS V14.00,2013-12-26 11:01:00,
2013-12-26 06:06:00,36.5,33.3,30.38,WNW,290,4.0,4.0,88,0.00,,OVC,0.00,VWS V14.00,2013-12-26 11:06:00,
2013-12-26 06:11:00,36.7,33.5,30.38,NW,310,2.7,4.0,88,0.00,,OVC,0.00,VWS V14.00,2013-12-26 11:11:00,
2013-12-26 06:16:00,36.9,33.9,30.38,WNW,296,2.7,4.0,89,0.00,,OVC,0.00,VWS V14.00,2013-12-26 11:16:00,
2013-12-26 06:21:00,36.9,33.9,30.38,NW,326,3.1,3.1,89,0.00,,OVC,0.00,VWS V14.00,2013-12-26 11:21:00,
2013-12-26 06:26:00,37.0,34.1,30.38,WNW,290,4.0,4.0,89,0.00,,OVC,0.00,VWS V14.00,2013-12-26 11:26:00,
2013-12-26 06:31:00,37.2,34.3,30.38,NW,307,5.4,5.4,89,0.00,,OVC,0.00,VWS V14.00,2013-12-26 11:31:00,
2013-12-26 06:36:00,37.2,34.3,30.38,WNW,295,3.6,4.0,89,0.00,,OVC,0.00,VWS V14.00,2013-12-26 11:36:00,
2013-12-26 06:41:00,37.4,34.5,30.38,NW,322,4.9,4.9,89,0.00,,OVC,0.00,VWS V14.00,2013-12-26 11:41:00,
2013-12-26 06:46:00,37.4,34.5,30.38,NW,308,3.6,5.8,89,0.00,,OVC,0.00,VWS V14.00,2013-12-26 11:46:00,
2013-12-26 06:51:00,37.6,34.6,30.38,WNW,282,3.1,4.0,89,0.00,,OVC,0.00,VWS V14.00,2013-12-26 11:51:00,
2013-12-26 06:56:00,37.8,34.8,30.38,WNW,286,4.0,4.5,89,0.00,,OVC,0.00,VWS V14.00,2013-12-26 11:56:00,
2013-12-26 07:02:00,37.6,34.6,30.38,NW,305,3.6,3.6,89,0.00,,OVC,0.00,VWS V14.00,2013-12-26 12:02:00,
2013-12-26 07:07:00,37.4,34.2,30.38,NW,311,4.9,4.9,88,0.00,,OVC,0.00,VWS V14.00,2013-12-26 12:07:00,
2013-12-26 07:12:00,37.0,34.1,30.38,WNW,299,3.1,4.0,89,0.00,,OVC,0.00,VWS V14.00,2013-12-26 12:12:00,
2013-12-26 07:17:00,37.0,34.1,30.38,NW,312,3.1,3.1,89,0.00,,OVC,0.00,VWS V14.00,2013-12-26 12:17:00,
2013-12-26 07:22:00,36.9,33.9,30.38,NW,308,4.0,4.0,89,0.00,,OVC,0.00,VWS V14.00,2013-12-26 12:22:00,
2013-12-26 07:27:00,36.7,33.8,30.38,WNW,303,2.7,4.0,89,0.00,,OVC,0.00,VWS V14.00,2013-12-26 12:27:00,
2013-12-26 07:32:00,36.7,33.8,30.38,NW,323,2.7,3.6,89,0.00,,OVC,0.00,VWS V14.00,2013-12-26 12:32:00,
2013-12-26 07:37:00,36.5,33.6,30.41,WNW,295,3.1,4.0,89,0.00,,OVC,0.00,VWS V14.00,2013-12-26 12:37:00,
2013-12-26 07:42:00,36.3,33.4,30.41,NW,310,3.6,3.6,89,0.00,,OVC,0.00,VWS V14.00,2013-12-26 12:42:00,
2013-12-26 07:47:00,36.1,33.2,30.41,WNW,293,0.0,0.0,89,0.00,,OVC,0.00,VWS V14.00,2013-12-26 12:47:00,
2013-12-26 07:52:00,36.1,33.2,30.41,WNW,298,0.0,0.0,89,0.00,,OVC,0.00,VWS V14.00,2013-12-26 12:52:00,
2013-12-26 07:57:00,36.1,33.5,30.41,NW,310,0.0,0.0,90,0.00,,OVC,0.00,VWS V14.00,2013-12-26 12:57:00,
2013-12-26 08:02:00,35.8,33.1,30.41,NW,315,0.0,0.0,90,0.00,,OVC,0.00,VWS V14.00,2013-12-26 13:02:00,
2013-12-26 08:08:00,35.6,33.0,30.41,NW,308,4.0,4.9,90,0.00,,OVC,0.00,VWS V14.00,2013-12-26 13:08:00,
2013-12-26 08:13:00,35.6,33.2,30.41,NW,305,2.7,3.6,91,0.00,,OVC,0.00,VWS V14.00,2013-12-26 13:13:00,
2013-12-26 08:18:00,35.6,33.2,30.41,NW,323,5.4,5.4,91,0.00,,OVC,0.00,VWS V14.00,2013-12-26 13:18:00,
2013-12-26 08:23:00,35.6,33.2,30.41,WNW,296,2.7,3.6,91,0.00,,OVC,0.00,VWS V14.00,2013-12-26 13:23:00,
2013-12-26 08:28:00,35.6,33.2,30.41,NW,316,3.1,3.1,91,0.00,,OVC,0.00,VWS V14.00,2013-12-26 13:28:00,
2013-12-26 08:33:00,35.8,33.4,30.41,NW,304,3.1,3.6,91,0.00,,OVC,0.00,VWS V14.00,2013-12-26 13:33:00,
2013-12-26 08:38:00,35.8,33.4,30.41,NW,304,4.0,5.4,91,0.00,,OVC,0.00,VWS V14.00,2013-12-26 13:38:00,
2013-12-26 08:43:00,35.6,33.2,30.41,WNW,303,4.0,5.4,91,0.00,,OVC,0.00,VWS V14.00,2013-12-26 13:43:00,
2013-12-26 08:49:00,35.6,33.5,30.41,NW,319,2.2,4.9,92,0.00,,OVC,0.00,VWS V14.00,2013-12-26 13:49:00,
2013-12-26 08:54:00,35.8,33.7,30.41,NNW,342,0.0,0.0,92,0.00,,OVC,0.00,VWS V14.00,2013-12-26 13:54:00,
2013-12-26 08:59:00,35.8,33.7,30.41,NNW,331,0.0,0.0,92,0.00,,OVC,0.00,VWS V14.00,2013-12-26 13:59:00,
2013-12-26 09:04:00,36.1,34.0,30.41,NW,315,0.0,0.0,92,0.00,,OVC,0.00,VWS V14.00,2013-12-26 14:04:00,
2013-12-26 09:09:00,36.1,34.0,30.41,NW,305,0.0,0.0,92,0.00,,OVC,0.00,VWS V14.00,2013-12-26 14:09:00,
2013-12-26 09:14:00,36.1,34.0,30.41,North,5,0.0,0.0,92,0.00,,OVC,0.00,VWS V14.00,2013-12-26 14:14:00,
2013-12-26 09:19:00,36.1,34.0,30.41,NW,323,2.7,4.0,92,0.00,,OVC,0.00,VWS V14.00,2013-12-26 14:19:00,
2013-12-26 09:24:00,36.3,34.2,30.41,NNW,331,2.7,2.7,92,0.00,,OVC,0.00,VWS V14.00,2013-12-26 14:24:00,
2013-12-26 09:29:00,36.5,34.4,30.41,NNW,345,2.7,3.6,92,0.00,,OVC,0.00,VWS V14.00,2013-12-26 14:29:00,
2013-12-26 09:34:00,36.9,35.0,30.41,NW,316,3.1,3.1,93,0.00,,OVC,0.00,VWS V14.00,2013-12-26 14:34:00,
2013-12-26 09:39:00,37.2,35.4,30.41,NNW,340,4.0,4.0,93,0.00,,OVC,0.00,VWS V14.00,2013-12-26 14:39:00,
2013-12-26 09:44:00,37.6,35.7,30.41,NW,311,3.6,4.0,93,0.00,,OVC,0.00,VWS V14.00,2013-12-26 14:44:00,
2013-12-26 09:49:00,38.1,36.3,30.44,NW,304,6.3,6.7,93,0.00,,OVC,0.00,VWS V14.00,2013-12-26 14:49:00,
2013-12-26 09:54:00,38.3,36.5,30.44,NNE,24,3.1,5.4,93,0.00,,OVC,0.00,VWS V14.00,2013-12-26 14:54:00,
2013-12-26 09:59:00,38.5,36.4,30.44,NNW,342,2.7,5.4,92,0.00,,OVC,0.00,VWS V14.00,2013-12-26 14:59:00,
2013-12-26 10:04:00,38.7,36.5,30.41,North,4,3.6,4.0,92,0.00,,OVC,0.00,VWS V14.00,2013-12-26 15:04:00,
2013-12-26 10:09:00,39.0,36.9,30.41,North,357,2.7,2.7,92,0.00,,OVC,0.00,VWS V14.00,2013-12-26 15:09:00,
2013-12-26 10:14:00,39.4,37.0,30.41,NNW,332,5.8,5.8,91,0.00,,OVC,0.00,VWS V14.00,2013-12-26 15:14:00,
2013-12-26 10:19:00,39.7,37.3,30.44,NW,305,5.4,5.4,91,0.00,,OVC,0.00,VWS V14.00,2013-12-26 15:19:00,
2013-12-26 10:24:00,39.9,37.0,30.44,North,0,4.9,4.9,89,0.00,,OVC,0.00,VWS V14.00,2013-12-26 15:24:00,
2013-12-26 10:29:00,40.3,37.0,30.44,NNW,331,2.7,3.1,88,0.00,,OVC,0.00,VWS V14.00,2013-12-26 15:29:00,
2013-12-26 10:34:00,40.5,36.9,30.44,NNW,338,6.3,6.3,87,0.00,,OVC,0.00,VWS V14.00,2013-12-26 15:34:00,
2013-12-26 10:39:00,40.8,37.0,30.44,NNE,14,3.1,5.8,86,0.00,,OVC,0.00,VWS V14.00,2013-12-26 15:39:00,
2013-12-26 10:45:00,41.2,36.7,30.44,WNW,302,3.1,5.4,84,0.00,,OVC,0.00,VWS V14.00,2013-12-26 15:45:00,
2013-12-26 10:50:00,41.5,36.8,30.44,North,0,4.9,4.9,83,0.00,,OVC,0.00,VWS V14.00,2013-12-26 15:50:00,
2013-12-26 10:55:00,41.7,36.3,30.44,North,0,6.3,6.3,81,0.00,,OVC,0.00,VWS V14.00,2013-12-26 15:55:00,
2013-12-26 11:00:00,41.9,35.9,30.44,WNW,302,4.9,4.9,79,0.00,,OVC,0.00,VWS V14.00,2013-12-26 16:00:00,
2013-12-26 11:05:00,41.9,35.2,30.44,NNW,346,2.7,4.9,77,0.00,,OVC,0.00,VWS V14.00,2013-12-26 16:05:00,
2013-12-26 11:10:00,42.3,35.6,30.44,North,1,5.8,5.8,77,0.00,,OVC,0.00,VWS V14.00,2013-12-26 16:10:00,
2013-12-26 11:15:00,42.6,35.6,30.44,NE,34,3.6,5.4,76,0.00,,OVC,0.00,VWS V14.00,2013-12-26 16:15:00,
2013-12-26 11:20:00,42.8,35.4,30.44,North,0,4.9,5.4,75,0.00,,OVC,0.00,VWS V14.00,2013-12-26 16:20:00,
2013-12-26 11:25:00,43.0,35.6,30.44,NNE,33,3.6,3.6,75,0.00,,OVC,0.00,VWS V14.00,2013-12-26 16:25:00,
2013-12-26 11:30:00,43.5,36.5,30.44,ENE,77,2.2,4.0,76,0.00,,OVC,0.00,VWS V14.00,2013-12-26 16:30:00,
2013-12-26 11:35:00,44.2,37.2,30.44,NW,318,3.6,4.0,76,0.00,,OVC,0.00,VWS V14.00,2013-12-26 16:35:00,
2013-12-26 11:40:00,44.6,36.8,30.44,NE,55,4.0,5.4,74,0.00,,OVC,0.00,VWS V14.00,2013-12-26 16:40:00,
2013-12-26 11:45:00,45.0,37.5,30.44,NE,35,4.0,6.3,75,0.00,,OVC,0.00,VWS V14.00,2013-12-26 16:45:00,
2013-12-26 11:50:00,45.3,37.5,30.44,NE,55,2.7,3.6,74,0.00,,OVC,0.00,VWS V14.00,2013-12-26 16:50:00,
2013-12-26 11:55:00,45.7,36.8,30.44,North,353,2.2,3.1,71,0.00,,OVC,0.00,VWS V14.00,2013-12-26 16:55:00,
2013-12-26 12:01:00,46.0,36.8,30.44,NW,322,5.8,5.8,70,0.00,,OVC,0.00,VWS V14.00,2013-12-26 17:01:00,
2013-12-26 12:06:00,46.4,36.8,30.44,NW,318,2.7,3.1,69,0.00,,OVC,0.00,VWS V14.00,2013-12-26 17:06:00,
2013-12-26 12:11:00,46.4,36.0,30.44,NNW,337,4.0,4.0,67,0.00,,OVC,0.00,VWS V14.00,2013-12-26 17:11:00,
2013-12-26 12:16:00,46.4,36.4,30.44,NNE,31,3.6,4.5,68,0.00,,OVC,0.00,VWS V14.00,2013-12-26 17:16:00,
2013-12-26 12:21:00,46.4,36.0,30.44,West,279,3.6,3.6,67,0.00,,OVC,0.00,VWS V14.00,2013-12-26 17:21:00,
2013-12-26 12:26:00,46.6,35.8,30.44,WNW,295,3.6,5.4,66,0.00,,OVC,0.00,VWS V14.00,2013-12-26 17:26:00,
2013-12-26 12:31:00,47.1,36.7,30.44,West,275,0.0,0.0,67,0.00,,OVC,0.00,VWS V14.00,2013-12-26 17:31:00,
2013-12-26 12:36:00,47.1,36.7,30.44,NNW,346,0.0,2.2,67,0.00,,OVC,0.00,VWS V14.00,2013-12-26 17:36:00,
2013-12-26 12:41:00,47.1,36.4,30.44,NNE,30,3.6,3.6,66,0.00,,OVC,0.00,VWS V14.00,2013-12-26 17:41:00,
2013-12-26 12:46:00,47.3,36.9,30.44,North,350,2.7,2.7,67,0.00,,OVC,0.00,VWS V14.00,2013-12-26 17:46:00,
2013-12-26 12:51:00,47.3,36.2,30.41,North,4,6.3,6.3,65,0.00,,OVC,0.00,VWS V14.00,2013-12-26 17:51:00,
2013-12-26 12:56:00,47.7,36.5,30.41,WNW,303,3.1,4.9,65,0.00,,OVC,0.00,VWS V14.00,2013-12-26 17:56:00,
2013-12-26 13:01:00,48.4,37.2,30.41,West,279,3.6,5.4,65,0.00,,OVC,0.00,VWS V14.00,2013-12-26 18:01:00,
2013-12-26 13:06:00,48.7,37.5,30.41,NE,41,3.6,3.6,65,0.00,,OVC,0.00,VWS V14.00,2013-12-26 18:06:00,
2013-12-26 13:11:00,49.1,37.9,30.41,NW,314,2.2,2.2,65,0.00,,OVC,0.00,VWS V14.00,2013-12-26 18:11:00,
2013-12-26 13:16:00,49.8,38.5,30.41,West,263,4.0,4.9,65,0.00,,OVC,0.00,VWS V14.00,2013-12-26 18:16:00,
2013-12-26 13:21:00,49.8,37.8,30.38,SW,231,2.7,3.1,63,0.00,,OVC,0.00,VWS V14.00,2013-12-26 18:21:00,
2013-12-26 13:26:00,49.3,37.2,30.38,NNE,32,2.7,3.1,63,0.00,,OVC,0.00,VWS V14.00,2013-12-26 18:26:00,
2013-12-26 13:32:00,48.9,36.9,30.38,NNW,345,0.0,0.0,63,0.00,,OVC,0.00,VWS V14.00,2013-12-26 18:32:00,
2013-12-26 13:37:00,48.7,36.7,30.38,NE,35,0.0,3.6,63,0.00,,OVC,0.00,VWS V14.00,2013-12-26 18:37:00,
2013-12-26 13:42:00,48.7,36.7,30.38,West,274,3.6,3.6,63,0.00,,OVC,0.00,VWS V14.00,2013-12-26 18:42:00,
2013-12-26 13:47:00,49.3,37.2,30.38,WNW,283,4.0,4.0,63,0.00,,OVC,0.00,VWS V14.00,2013-12-26 18:47:00,
2013-12-26 13:52:00,49.8,37.8,30.38,North,0,3.6,4.0,63,0.00,,OVC,0.00,VWS V14.00,2013-12-26 18:52:00,
2013-12-26 13:57:00,50.0,37.5,30.38,North,6,4.5,4.9,62,0.00,,OVC,0.00,VWS V14.00,2013-12-26 18:57:00,
2013-12-26 14:02:00,50.0,37.5,30.38,WNW,303,2.2,2.7,62,0.00,,OVC,0.00,VWS V14.00,2013-12-26 19:02:00,
2013-12-26 14:07:00,49.8,36.5,30.38,NNW,342,4.0,5.4,60,0.00,,OVC,0.00,VWS V14.00,2013-12-26 19:07:00,
2013-12-26 14:12:00,49.8,36.5,30.38,North,357,0.0,0.0,60,0.00,,OVC,0.00,VWS V14.00,2013-12-26 19:12:00,
2013-12-26 14:17:00,50.2,36.8,30.38,WNW,291,3.6,3.6,60,0.00,,OVC,0.00,VWS V14.00,2013-12-26 19:17:00,
2013-12-26 14:22:00,50.5,37.2,30.35,NNE,26,5.4,5.4,60,0.00,,OVC,0.00,VWS V14.00,2013-12-26 19:22:00,
2013-12-26 14:27:00,50.9,37.5,30.35,WNW,303,4.0,4.0,60,0.00,,OVC,0.00,VWS V14.00,2013-12-26 19:27:00,
2013-12-26 14:32:00,51.6,37.8,30.35,North,0,2.2,6.3,59,0.00,,OVC,0.00,VWS V14.00,2013-12-26 19:32:00,
2013-12-26 14:37:00,52.3,37.6,30.35,NW,317,8.1,8.1,57,0.00,,OVC,0.00,VWS V14.00,2013-12-26 19:37:00,
2013-12-26 14:42:00,52.2,37.0,30.35,NNW,339,3.1,5.8,56,0.00,,OVC,0.00,VWS V14.00,2013-12-26 19:42:00,
2013-12-26 14:47:00,52.2,37.4,30.35,ENE,59,2.7,4.0,57,0.00,,OVC,0.00,VWS V14.00,2013-12-26 19:47:00,
2013-12-26 14:52:00,52.5,37.7,30.35,North,10,0.0,2.2,57,0.00,,OVC,0.00,VWS V14.00,2013-12-26 19:52:00,
2013-12-26 14:58:00,53.1,37.8,30.35,North,357,3.6,4.9,56,0.00,,OVC,0.00,VWS V14.00,2013-12-26 19:58:00,
2013-12-26 15:03:00,53.2,38.4,30.35,WNW,301,0.0,2.2,57,0.00,,OVC,0.00,VWS V14.00,2013-12-26 20:03:00,
2013-12-26 15:08:00,53.4,38.6,30.35,NNW,346,0.0,0.0,57,0.00,,OVC,0.00,VWS V14.00,2013-12-26 20:08:00,
2013-12-26 15:13:00,53.6,38.3,30.35,West,265,3.1,3.1,56,0.00,,OVC,0.00,VWS V14.00,2013-12-26 20:13:00,
2013-12-26 15:18:00,53.8,38.9,30.35,WSW,245,2.2,2.7,57,0.00,,OVC,0.00,VWS V14.00,2013-12-26 20:18:00,
2013-12-26 15:23:00,54.0,39.1,30.35,WSW,238,0.0,2.7,57,0.00,,OVC,0.00,VWS V14.00,2013-12-26 20:23:00,
2013-12-26 15:28:00,54.0,38.2,30.35,North,0,4.0,5.4,55,0.00,,OVC,0.00,VWS V14.00,2013-12-26 20:28:00,
2013-12-26 15:33:00,53.6,37.4,30.32,NNW,345,4.0,5.4,54,0.00,,OVC,0.00,VWS V14.00,2013-12-26 20:33:00,
2013-12-26 15:38:00,53.8,38.0,30.32,NW,321,3.1,5.4,55,0.00,,OVC,0.00,VWS V14.00,2013-12-26 20:38:00,
2013-12-26 15:43:00,54.0,38.2,30.32,NNE,28,0.0,2.7,55,0.00,,OVC,0.00,VWS V14.00,2013-12-26 20:43:00,
2013-12-26 15:48:00,54.1,38.3,30.32,WSW,252,3.1,3.6,55,0.00,,OVC,0.00,VWS V14.00,2013-12-26 20:48:00,
2013-12-26 15:53:00,54.3,38.5,30.32,WNW,293,0.0,0.0,55,0.00,,OVC,0.00,VWS V14.00,2013-12-26 20:53:00,
2013-12-26 15:59:00,54.1,38.3,30.32,North,9,2.2,3.1,55,0.00,,OVC,0.00,VWS V14.00,2013-12-26 20:59:00,
2013-12-26 16:04:00,54.3,38.5,30.32,NNE,25,4.0,4.0,55,0.00,,OVC,0.00,VWS V14.00,2013-12-26 21:04:00,
2013-12-26 16:09:00,54.1,38.3,30.32,SE,136,2.7,2.7,55,0.00,,OVC,0.00,VWS V14.00,2013-12-26 21:09:00,
2013-12-26 16:14:00,54.0,38.2,30.32,ESE,115,2.2,2.7,55,0.00,,OVC,0.00,VWS V14.00,2013-12-26 21:14:00,
2013-12-26 16:19:00,53.8,38.0,30.32,North,353,3.1,3.1,55,0.00,,OVC,0.00,VWS V14.00,2013-12-26 21:19:00,
2013-12-26 16:24:00,53.6,37.4,30.32,NW,326,2.7,3.1,54,0.00,,OVC,0.00,VWS V14.00,2013-12-26 21:24:00,
2013-12-26 16:29:00,53.8,38.0,30.32,NNE,20,2.2,2.2,55,0.00,,OVC,0.00,VWS V14.00,2013-12-26 21:29:00,
2013-12-26 16:34:00,53.8,38.0,30.32,NNW,334,3.6,3.6,55,0.00,,OVC,0.00,VWS V14.00,2013-12-26 21:34:00,
2013-12-26 16:39:00,53.8,38.0,30.32,North,0,3.1,3.6,55,0.00,,OVC,0.00,VWS V14.00,2013-12-26 21:39:00,
2013-12-26 16:44:00,54.0,38.2,30.32,NW,311,3.6,3.6,55,0.00,,OVC,0.00,VWS V14.00,2013-12-26 21:44:00,
2013-12-26 16:49:00,54.5,38.7,30.32,WNW,301,0.0,0.0,55,0.00,,OVC,0.00,VWS V14.00,2013-12-26 21:49:00,
2013-12-26 16:54:00,54.3,38.5,30.32,NW,318,2.7,2.7,55,0.00,,OVC,0.00,VWS V14.00,2013-12-26 21:54:00,
2013-12-26 16:59:00,54.1,38.3,30.32,North,349,0.0,0.0,55,0.00,,OVC,0.00,VWS V14.00,2013-12-26 21:59:00,
2013-12-26 17:04:00,54.0,38.2,30.32,SW,236,2.7,2.7,55,0.00,,OVC,0.00,VWS V14.00,2013-12-26 22:04:00,
2013-12-26 17:10:00,54.0,38.2,30.32,SW,235,0.0,2.2,55,0.00,,OVC,0.00,VWS V14.00,2013-12-26 22:10:00,
2013-12-26 17:15:00,54.1,38.8,30.32,SW,229,2.2,2.2,56,0.00,,OVC,0.00,VWS V14.00,2013-12-26 22:15:00,
2013-12-26 17:20:00,54.3,39.0,30.32,SW,218,2.7,2.7,56,0.00,,OVC,0.00,VWS V14.00,2013-12-26 22:20:00,
2013-12-26 17:25:00,54.5,39.1,30.32,SW,217,2.7,3.6,56,0.00,,OVC,0.00,VWS V14.00,2013-12-26 22:25:00,
2013-12-26 17:30:00,54.5,39.1,30.32,SW,217,0.0,0.0,56,0.00,,OVC,0.00,VWS V14.00,2013-12-26 22:30:00,
2013-12-26 17:35:00,54.1,38.8,30.32,SW,223,0.0,2.7,56,0.00,,OVC,0.00,VWS V14.00,2013-12-26 22:35:00,
2013-12-26 17:37:00,54.0,38.6,30.32,SW,223,0.0,0.0,56,0.00,,OVC,0.00,VWS V14.00,2013-12-26 22:37:00,
2013-12-26 17:42:00,53.6,38.3,30.32,SW,223,2.2,2.7,56,0.00,,OVC,0.00,VWS V14.00,2013-12-26 22:42:00,
2013-12-26 17:47:00,53.2,38.4,30.32,SW,223,0.0,0.0,57,0.00,,OVC,0.00,VWS V14.00,2013-12-26 22:47:00,
2013-12-26 17:52:00,53.1,38.2,30.32,SW,223,0.0,0.0,57,0.00,,OVC,0.00,VWS V14.00,2013-12-26 22:52:00,
2013-12-26 17:57:00,52.5,38.2,30.32,SW,223,0.0,0.0,58,0.00,,OVC,0.00,VWS V14.00,2013-12-26 22:57:00,
2013-12-26 18:02:00,52.3,38.0,30.32,SW,223,0.0,0.0,58,0.00,,OVC,0.00,VWS V14.00,2013-12-26 23:02:00,
2013-12-26 18:07:00,52.3,38.5,30.35,SW,223,0.0,0.0,59,0.00,,OVC,0.00,VWS V14.00,2013-12-26 23:07:00,
2013-12-26 18:12:00,52.2,38.3,30.35,SW,223,0.0,0.0,59,0.00,,OVC,0.00,VWS V14.00,2013-12-26 23:12:00,
2013-12-26 18:17:00,51.8,38.4,30.35,SW,223,0.0,0.0,60,0.00,,OVC,0.00,VWS V14.00,2013-12-26 23:17:00,
2013-12-26 18:22:00,51.6,38.6,30.35,SW,223,0.0,0.0,61,0.00,,OVC,0.00,VWS V14.00,2013-12-26 23:22:00,
2013-12-26 18:27:00,51.3,38.3,30.35,SW,223,0.0,0.0,61,0.00,,OVC,0.00,VWS V14.00,2013-12-26 23:27:00,
2013-12-26 18:32:00,51.3,38.3,30.35,SW,223,2.2,2.2,61,0.00,,OVC,0.00,VWS V14.00,2013-12-26 23:32:00,
2013-12-26 18:37:00,50.7,38.2,30.35,SW,223,0.0,0.0,62,0.00,,OVC,0.00,VWS V14.00,2013-12-26 23:37:00,
2013-12-26 18:42:00,50.5,38.0,30.35,SW,223,0.0,0.0,62,0.00,,OVC,0.00,VWS V14.00,2013-12-26 23:42:00,
2013-12-26 18:47:00,50.4,37.8,30.35,SW,223,0.0,0.0,62,0.00,,OVC,0.00,VWS V14.00,2013-12-26 23:47:00,
2013-12-26 18:49:00,50.2,37.7,30.35,SW,223,0.0,0.0,62,0.00,,OVC,0.00,VWS V14.00,2013-12-26 23:49:00,
2013-12-26 18:55:00,50.2,37.7,30.35,SW,223,0.0,0.0,62,0.00,,OVC,0.00,VWS V14.00,2013-12-26 23:55:00,
2013-12-26 19:00:00,50.0,37.9,30.35,SW,223,0.0,0.0,63,0.00,,OVC,0.00,VWS V14.00,2013-12-27 00:00:00,
2013-12-26 19:05:00,50.0,37.9,30.35,SW,223,2.2,2.2,63,0.00,,OVC,0.00,VWS V14.00,2013-12-27 00:05:00,
2013-12-26 19:10:00,49.8,38.2,30.35,SW,223,0.0,2.7,64,0.00,,OVC,0.00,VWS V14.00,2013-12-27 00:10:00,
2013-12-26 19:15:00,49.6,38.0,30.35,SW,223,3.1,3.1,64,0.00,,OVC,0.00,VWS V14.00,2013-12-27 00:15:00,
2013-12-26 19:20:00,49.5,37.8,30.35,SW,223,2.7,3.1,64,0.00,,OVC,0.00,VWS V14.00,2013-12-27 00:20:00,
2013-12-26 19:25:00,49.3,38.0,30.35,SW,223,2.7,2.7,65,0.00,,OVC,0.00,VWS V14.00,2013-12-27 00:25:00,
2013-12-26 19:30:00,49.3,38.0,30.35,SW,223,3.6,4.0,65,0.00,,OVC,0.00,VWS V14.00,2013-12-27 00:30:00,
2013-12-26 19:35:00,49.3,38.0,30.35,SW,223,2.7,2.7,65,0.00,,OVC,0.00,VWS V14.00,2013-12-27 00:35:00,
2013-12-26 19:40:00,48.9,38.1,30.35,SW,223,0.0,0.0,66,0.00,,OVC,0.00,VWS V14.00,2013-12-27 00:40:00,
2013-12-26 19:45:00,48.6,37.7,30.35,SW,223,0.0,0.0,66,0.00,,OVC,0.00,VWS V14.00,2013-12-27 00:45:00,
2013-12-26 19:50:00,48.4,37.9,30.35,SW,223,0.0,0.0,67,0.00,,OVC,0.00,VWS V14.00,2013-12-27 00:50:00,
2013-12-26 19:55:00,48.0,38.0,30.35,SW,223,0.0,0.0,68,0.00,,OVC,0.00,VWS V14.00,2013-12-27 00:55:00,
2013-12-26 20:00:00,48.0,38.0,30.35,SW,223,2.2,3.1,68,0.00,,OVC,0.00,VWS V14.00,2013-12-27 01:00:00,
2013-12-26 20:05:00,48.2,38.2,30.35,SW,223,0.0,0.0,68,0.00,,OVC,0.00,VWS V14.00,2013-12-27 01:05:00,
2013-12-26 20:10:00,48.2,38.2,30.35,SW,223,3.6,3.6,68,0.00,,OVC,0.00,VWS V14.00,2013-12-27 01:10:00,
2013-12-26 20:15:00,48.2,38.5,30.35,SW,223,0.0,0.0,69,0.00,,OVC,0.00,VWS V14.00,2013-12-27 01:15:00,
2013-12-26 20:20:00,48.2,38.5,30.35,SW,223,2.2,2.2,69,0.00,,OVC,0.00,VWS V14.00,2013-12-27 01:20:00,
2013-12-26 20:25:00,48.2,38.5,30.35,SW,223,2.7,2.7,69,0.00,,OVC,0.00,VWS V14.00,2013-12-27 01:25:00,
2013-12-26 20:30:00,48.2,38.5,30.35,SW,223,2.7,3.1,69,0.00,,OVC,0.00,VWS V14.00,2013-12-27 01:30:00,
2013-12-26 20:35:00,48.2,38.9,30.35,SW,223,3.6,3.6,70,0.00,,OVC,0.00,VWS V14.00,2013-12-27 01:35:00,
2013-12-26 20:41:00,48.2,38.9,30.35,SW,223,0.0,0.0,70,0.00,,OVC,0.00,VWS V14.00,2013-12-27 01:41:00,
2013-12-26 20:46:00,48.2,38.9,30.35,SW,223,0.0,0.0,70,0.00,,OVC,0.00,VWS V14.00,2013-12-27 01:46:00,
2013-12-26 20:51:00,47.7,38.4,30.35,SW,223,0.0,0.0,70,0.00,,OVC,0.00,VWS V14.00,2013-12-27 01:51:00,
2013-12-26 20:56:00,46.9,37.7,30.35,SW,223,0.0,0.0,70,0.00,,OVC,0.00,VWS V14.00,2013-12-27 01:56:00,
2013-12-26 21:01:00,46.8,37.5,30.35,SW,223,0.0,0.0,70,0.00,,OVC,0.00,VWS V14.00,2013-12-27 02:01:00,
2013-12-26 21:06:00,46.2,37.7,30.35,SW,223,0.0,0.0,72,0.00,,OVC,0.00,VWS V14.00,2013-12-27 02:06:00,
2013-12-26 21:11:00,46.0,37.5,30.35,SW,223,0.0,0.0,72,0.00,,OVC,0.00,VWS V14.00,2013-12-27 02:11:00,
2013-12-26 21:16:00,46.0,37.5,30.35,SW,223,0.0,0.0,72,0.00,,OVC,0.00,VWS V14.00,2013-12-27 02:16:00,
2013-12-26 21:21:00,46.0,37.9,30.35,SW,223,0.0,0.0,73,0.00,,OVC,0.00,VWS V14.00,2013-12-27 02:21:00,
2013-12-26 21:27:00,46.0,37.9,30.35,SW,223,0.0,0.0,73,0.00,,OVC,0.00,VWS V14.00,2013-12-27 02:27:00,
2013-12-26 21:32:00,45.9,37.7,30.35,SW,223,0.0,0.0,73,0.00,,OVC,0.00,VWS V14.00,2013-12-27 02:32:00,
2013-12-26 21:37:00,45.5,37.4,30.35,SW,223,0.0,0.0,73,0.00,,OVC,0.00,VWS V14.00,2013-12-27 02:37:00,
2013-12-26 21:42:00,45.3,37.2,30.35,SW,223,0.0,0.0,73,0.00,,OVC,0.00,VWS V14.00,2013-12-27 02:42:00,
2013-12-26 21:47:00,45.3,37.2,30.35,SW,223,0.0,0.0,73,0.00,,OVC,0.00,VWS V14.00,2013-12-27 02:47:00,
2013-12-26 21:52:00,45.1,37.0,30.38,SW,223,0.0,0.0,73,0.00,,OVC,0.00,VWS V14.00,2013-12-27 02:52:00,
2013-12-26 21:57:00,44.6,36.8,30.38,SW,223,0.0,0.0,74,0.00,,OVC,0.00,VWS V14.00,2013-12-27 02:57:00,
2013-12-26 22:02:00,44.2,36.5,30.38,SW,223,0.0,0.0,74,0.00,,OVC,0.00,VWS V14.00,2013-12-27 03:02:00,
2013-12-26 22:07:00,44.2,36.8,30.38,SW,223,0.0,0.0,75,0.00,,OVC,0.00,VWS V14.00,2013-12-27 03:07:00,
2013-12-26 22:12:00,44.2,36.8,30.38,SW,223,0.0,0.0,75,0.00,,OVC,0.00,VWS V14.00,2013-12-27 03:12:00,
2013-12-26 22:17:00,44.2,36.8,30.38,SW,223,0.0,0.0,75,0.00,,OVC,0.00,VWS V14.00,2013-12-27 03:17:00,
2013-12-26 22:22:00,44.4,37.3,30.38,SW,223,0.0,0.0,76,0.00,,OVC,0.00,VWS V14.00,2013-12-27 03:22:00,
2013-12-26 22:27:00,44.4,37.3,30.38,SW,223,0.0,0.0,76,0.00,,OVC,0.00,VWS V14.00,2013-12-27 03:27:00,
2013-12-26 22:32:00,44.2,37.2,30.38,SW,223,0.0,0.0,76,0.00,,OVC,0.00,VWS V14.00,2013-12-27 03:32:00,
2013-12-26 22:37:00,44.2,37.2,30.38,SW,223,0.0,0.0,76,0.00,,OVC,0.00,VWS V14.00,2013-12-27 03:37:00,
2013-12-26 22:42:00,43.9,37.2,30.38,SW,223,0.0,0.0,77,0.00,,OVC,0.00,VWS V14.00,2013-12-27 03:42:00,
2013-12-26 22:48:00,43.5,37.1,30.38,SW,223,0.0,0.0,78,0.00,,OVC,0.00,VWS V14.00,2013-12-27 03:48:00,
2013-12-26 22:53:00,43.5,37.1,30.38,SW,223,0.0,0.0,78,0.00,,OVC,0.00,VWS V14.00,2013-12-27 03:53:00,
2013-12-26 22:58:00,43.5,37.1,30.38,SW,223,0.0,0.0,78,0.00,,OVC,0.00,VWS V14.00,2013-12-27 03:58:00,
2013-12-26 23:03:00,43.7,37.3,30.38,SW,223,0.0,0.0,78,0.00,,OVC,0.00,VWS V14.00,2013-12-27 04:03:00,
2013-12-26 23:08:00,43.7,37.3,30.38,SW,223,0.0,0.0,78,0.00,,OVC,0.00,VWS V14.00,2013-12-27 04:08:00,
2013-12-26 23:13:00,43.5,37.1,30.38,SW,223,0.0,0.0,78,0.00,,OVC,0.00,VWS V14.00,2013-12-27 04:13:00,
2013-12-26 23:18:00,43.5,37.5,30.38,SW,223,0.0,0.0,79,0.00,,OVC,0.00,VWS V14.00,2013-12-27 04:18:00,
2013-12-26 23:23:00,43.7,37.6,30.38,SW,223,0.0,0.0,79,0.00,,OVC,0.00,VWS V14.00,2013-12-27 04:23:00,
2013-12-26 23:28:00,44.1,38.0,30.38,SW,223,0.0,0.0,79,0.00,,OVC,0.00,VWS V14.00,2013-12-27 04:28:00,
2013-12-26 23:33:00,44.2,38.2,30.38,SW,223,0.0,0.0,79,0.00,,OVC,0.00,VWS V14.00,2013-12-27 04:33:00,
2013-12-26 23:38:00,44.2,38.2,30.38,SW,223,0.0,0.0,79,0.00,,OVC,0.00,VWS V14.00,2013-12-27 04:38:00,
2013-12-26 23:43:00,44.2,38.5,30.38,SW,223,0.0,0.0,80,0.00,,OVC,0.00,VWS V14.00,2013-12-27 04:43:00,
2013-12-26 23:48:00,44.2,38.5,30.38,SW,223,0.0,0.0,80,0.00,,OVC,0.00,VWS V14.00,2013-12-27 04:48:00,
2013-12-26 23:53:00,44.2,38.5,30.38,SW,223,0.0,0.0,80,0.00,,OVC,0.00,VWS V14.00,2013-12-27 04:53:00,
2013-12-26 23:58:00,43.9,37.8,30.38,SW,223,0.0,0.0,79,0.00,,OVC,0.00,VWS V14.00,2013-12-27 04:58:00,